sensor_id;sensor_type;location;lat;lon;timestamp;P1;durP1;ratioP1;P2;durP2;ratioP2
48621;SDS011;34421;48.944;9.460;2023-07-29T00:00:31;1.50;;;0.70;;
48621;SDS011;34421;48.944;9.460;2023-07-29T00:02:56;1.88;;;1.10;;
48621;SDS011;34421;48.944;9.460;2023-07-29T00:05:24;2.25;;;1.10;;
48621;SDS011;34421;48.944;9.460;2023-07-29T00:07:50;2.30;;;0.98;;
48621;SDS011;34421;48.944;9.460;2023-07-29T00:10:18;2.25;;;1.10;;
48621;SDS011;34421;48.944;9.460;2023-07-29T00:12:43;1.73;;;0.90;;
48621;SDS011;34421;48.944;9.460;2023-07-29T00:15:09;2.78;;;1.48;;
48621;SDS011;34421;48.944;9.460;2023-07-29T00:17:36;2.65;;;1.30;;
48621;SDS011;34421;48.944;9.460;2023-07-29T00:20:01;2.22;;;1.08;;
48621;SDS011;34421;48.944;9.460;2023-07-29T00:22:27;1.98;;;1.10;;
48621;SDS011;34421;48.944;9.460;2023-07-29T00:24:53;1.83;;;1.25;;
48621;SDS011;34421;48.944;9.460;2023-07-29T00:27:22;2.40;;;1.13;;
48621;SDS011;34421;48.944;9.460;2023-07-29T00:29:48;2.33;;;0.90;;
48621;SDS011;34421;48.944;9.460;2023-07-29T00:32:13;1.92;;;0.80;;
48621;SDS011;34421;48.944;9.460;2023-07-29T00:34:39;1.52;;;0.77;;
48621;SDS011;34421;48.944;9.460;2023-07-29T00:37:04;1.75;;;0.73;;
48621;SDS011;34421;48.944;9.460;2023-07-29T00:39:31;1.90;;;1.10;;
48621;SDS011;34421;48.944;9.460;2023-07-29T00:41:56;1.90;;;1.10;;
48621;SDS011;34421;48.944;9.460;2023-07-29T00:44:22;2.00;;;0.93;;
48621;SDS011;34421;48.944;9.460;2023-07-29T00:46:47;1.60;;;0.80;;
48621;SDS011;34421;48.944;9.460;2023-07-29T00:49:16;2.05;;;1.05;;
48621;SDS011;34421;48.944;9.460;2023-07-29T00:51:42;1.58;;;0.90;;
48621;SDS011;34421;48.944;9.460;2023-07-29T00:54:07;1.63;;;0.70;;
48621;SDS011;34421;48.944;9.460;2023-07-29T00:56:33;1.70;;;0.82;;
48621;SDS011;34421;48.944;9.460;2023-07-29T00:58:58;1.75;;;0.77;;
48621;SDS011;34421;48.944;9.460;2023-07-29T01:01:26;1.80;;;1.00;;
48621;SDS011;34421;48.944;9.460;2023-07-29T01:03:52;3.53;;;1.20;;
48621;SDS011;34421;48.944;9.460;2023-07-29T01:06:23;1.23;;;0.65;;
48621;SDS011;34421;48.944;9.460;2023-07-29T01:08:59;1.70;;;0.80;;
48621;SDS011;34421;48.944;9.460;2023-07-29T01:11:46;2.10;;;0.90;;
48621;SDS011;34421;48.944;9.460;2023-07-29T01:14:22;1.80;;;1.00;;
48621;SDS011;34421;48.944;9.460;2023-07-29T01:17:00;1.73;;;0.73;;
48621;SDS011;34421;48.944;9.460;2023-07-29T01:19:48;1.85;;;1.00;;
48621;SDS011;34421;48.944;9.460;2023-07-29T01:22:18;2.35;;;1.08;;
48621;SDS011;34421;48.944;9.460;2023-07-29T01:24:46;2.65;;;0.90;;
48621;SDS011;34421;48.944;9.460;2023-07-29T01:27:11;2.25;;;0.80;;
48621;SDS011;34421;48.944;9.460;2023-07-29T01:29:37;1.58;;;0.60;;
48621;SDS011;34421;48.944;9.460;2023-07-29T01:32:04;1.42;;;0.50;;
48621;SDS011;34421;48.944;9.460;2023-07-29T01:34:41;2.00;;;0.50;;
48621;SDS011;34421;48.944;9.460;2023-07-29T01:37:11;1.13;;;0.60;;
48621;SDS011;34421;48.944;9.460;2023-07-29T01:39:44;1.23;;;0.50;;
48621;SDS011;34421;48.944;9.460;2023-07-29T01:42:11;1.25;;;0.70;;
48621;SDS011;34421;48.944;9.460;2023-07-29T01:44:37;2.15;;;0.93;;
48621;SDS011;34421;48.944;9.460;2023-07-29T01:47:02;1.75;;;0.90;;
48621;SDS011;34421;48.944;9.460;2023-07-29T01:49:27;1.42;;;0.57;;
48621;SDS011;34421;48.944;9.460;2023-07-29T01:51:53;1.02;;;0.50;;
48621;SDS011;34421;48.944;9.460;2023-07-29T01:54:18;2.22;;;0.70;;
48621;SDS011;34421;48.944;9.460;2023-07-29T01:56:43;1.48;;;0.63;;
48621;SDS011;34421;48.944;9.460;2023-07-29T01:59:09;2.42;;;0.93;;
48621;SDS011;34421;48.944;9.460;2023-07-29T02:01:34;1.90;;;0.88;;
48621;SDS011;34421;48.944;9.460;2023-07-29T02:03:59;1.02;;;0.45;;
48621;SDS011;34421;48.944;9.460;2023-07-29T02:06:25;1.40;;;0.50;;
48621;SDS011;34421;48.944;9.460;2023-07-29T02:08:52;1.08;;;0.40;;
48621;SDS011;34421;48.944;9.460;2023-07-29T02:11:18;1.88;;;0.60;;
48621;SDS011;34421;48.944;9.460;2023-07-29T02:13:45;2.85;;;0.90;;
48621;SDS011;34421;48.944;9.460;2023-07-29T02:16:10;1.02;;;0.50;;
48621;SDS011;34421;48.944;9.460;2023-07-29T02:18:36;1.60;;;0.55;;
48621;SDS011;34421;48.944;9.460;2023-07-29T02:21:01;1.38;;;0.70;;
48621;SDS011;34421;48.944;9.460;2023-07-29T02:23:26;1.55;;;0.60;;
48621;SDS011;34421;48.944;9.460;2023-07-29T02:25:52;1.10;;;0.60;;
48621;SDS011;34421;48.944;9.460;2023-07-29T02:28:17;1.60;;;0.60;;
48621;SDS011;34421;48.944;9.460;2023-07-29T02:30:42;1.75;;;0.50;;
48621;SDS011;34421;48.944;9.460;2023-07-29T02:33:11;1.65;;;0.40;;
48621;SDS011;34421;48.944;9.460;2023-07-29T02:35:36;2.03;;;0.40;;
48621;SDS011;34421;48.944;9.460;2023-07-29T02:38:01;1.17;;;0.30;;
48621;SDS011;34421;48.944;9.460;2023-07-29T02:40:27;1.10;;;0.30;;
48621;SDS011;34421;48.944;9.460;2023-07-29T02:42:54;1.02;;;0.40;;
48621;SDS011;34421;48.944;9.460;2023-07-29T02:45:19;1.40;;;0.38;;
48621;SDS011;34421;48.944;9.460;2023-07-29T02:47:44;0.98;;;0.30;;
48621;SDS011;34421;48.944;9.460;2023-07-29T02:50:10;0.75;;;0.32;;
48621;SDS011;34421;48.944;9.460;2023-07-29T02:52:35;1.77;;;0.60;;
48621;SDS011;34421;48.944;9.460;2023-07-29T02:55:00;0.47;;;0.20;;
48621;SDS011;34421;48.944;9.460;2023-07-29T02:57:26;0.77;;;0.40;;
48621;SDS011;34421;48.944;9.460;2023-07-29T02:59:51;1.05;;;0.50;;
48621;SDS011;34421;48.944;9.460;2023-07-29T03:02:16;0.60;;;0.30;;
48621;SDS011;34421;48.944;9.460;2023-07-29T03:04:41;0.47;;;0.20;;
48621;SDS011;34421;48.944;9.460;2023-07-29T03:07:07;1.05;;;0.40;;
48621;SDS011;34421;48.944;9.460;2023-07-29T03:09:32;0.35;;;0.20;;
48621;SDS011;34421;48.944;9.460;2023-07-29T03:11:58;1.63;;;0.70;;
48621;SDS011;34421;48.944;9.460;2023-07-29T03:14:24;1.35;;;0.60;;
48621;SDS011;34421;48.944;9.460;2023-07-29T03:16:49;2.00;;;0.80;;
48621;SDS011;34421;48.944;9.460;2023-07-29T03:19:15;1.80;;;0.90;;
48621;SDS011;34421;48.944;9.460;2023-07-29T03:21:40;1.83;;;0.98;;
48621;SDS011;34421;48.944;9.460;2023-07-29T03:24:05;2.42;;;1.00;;
48621;SDS011;34421;48.944;9.460;2023-07-29T03:26:32;1.77;;;0.95;;
48621;SDS011;34421;48.944;9.460;2023-07-29T03:28:57;2.17;;;1.02;;
48621;SDS011;34421;48.944;9.460;2023-07-29T03:31:22;1.73;;;0.85;;
48621;SDS011;34421;48.944;9.460;2023-07-29T03:33:47;1.83;;;0.90;;
48621;SDS011;34421;48.944;9.460;2023-07-29T03:36:13;1.58;;;0.80;;
48621;SDS011;34421;48.944;9.460;2023-07-29T03:38:39;1.77;;;0.88;;
48621;SDS011;34421;48.944;9.460;2023-07-29T03:41:06;1.98;;;0.90;;
48621;SDS011;34421;48.944;9.460;2023-07-29T03:43:32;0.90;;;0.70;;
48621;SDS011;34421;48.944;9.460;2023-07-29T03:45:58;3.03;;;1.15;;
48621;SDS011;34421;48.944;9.460;2023-07-29T03:48:23;1.42;;;0.82;;
48621;SDS011;34421;48.944;9.460;2023-07-29T03:50:48;1.50;;;0.77;;
48621;SDS011;34421;48.944;9.460;2023-07-29T03:53:14;1.33;;;0.70;;
48621;SDS011;34421;48.944;9.460;2023-07-29T03:55:39;2.13;;;0.73;;
48621;SDS011;34421;48.944;9.460;2023-07-29T03:58:05;1.80;;;0.90;;
48621;SDS011;34421;48.944;9.460;2023-07-29T04:00:30;1.40;;;0.60;;
48621;SDS011;34421;48.944;9.460;2023-07-29T04:02:56;1.60;;;0.63;;
48621;SDS011;34421;48.944;9.460;2023-07-29T04:05:21;1.20;;;0.60;;
48621;SDS011;34421;48.944;9.460;2023-07-29T04:07:46;3.50;;;0.90;;
48621;SDS011;34421;48.944;9.460;2023-07-29T04:10:12;1.08;;;0.55;;
48621;SDS011;34421;48.944;9.460;2023-07-29T04:12:38;1.02;;;0.60;;
48621;SDS011;34421;48.944;9.460;2023-07-29T04:15:03;1.60;;;0.70;;
48621;SDS011;34421;48.944;9.460;2023-07-29T04:17:29;1.38;;;0.65;;
48621;SDS011;34421;48.944;9.460;2023-07-29T04:19:54;2.28;;;0.90;;
48621;SDS011;34421;48.944;9.460;2023-07-29T04:22:20;1.88;;;0.80;;
48621;SDS011;34421;48.944;9.460;2023-07-29T04:24:45;3.92;;;0.90;;
48621;SDS011;34421;48.944;9.460;2023-07-29T04:27:11;1.42;;;0.57;;
48621;SDS011;34421;48.944;9.460;2023-07-29T04:29:36;1.15;;;0.70;;
48621;SDS011;34421;48.944;9.460;2023-07-29T04:32:02;1.83;;;0.70;;
48621;SDS011;34421;48.944;9.460;2023-07-29T04:34:28;2.70;;;0.88;;
48621;SDS011;34421;48.944;9.460;2023-07-29T04:36:53;1.70;;;0.70;;
48621;SDS011;34421;48.944;9.460;2023-07-29T04:39:19;1.27;;;0.60;;
48621;SDS011;34421;48.944;9.460;2023-07-29T04:41:45;1.23;;;0.60;;
48621;SDS011;34421;48.944;9.460;2023-07-29T04:44:11;1.88;;;0.60;;
48621;SDS011;34421;48.944;9.460;2023-07-29T04:46:36;1.45;;;0.73;;
48621;SDS011;34421;48.944;9.460;2023-07-29T04:49:02;1.88;;;0.73;;
48621;SDS011;34421;48.944;9.460;2023-07-29T04:51:27;1.42;;;0.57;;
48621;SDS011;34421;48.944;9.460;2023-07-29T04:53:53;1.23;;;0.57;;
48621;SDS011;34421;48.944;9.460;2023-07-29T04:56:18;1.38;;;0.50;;
48621;SDS011;34421;48.944;9.460;2023-07-29T04:58:43;1.55;;;0.50;;
48621;SDS011;34421;48.944;9.460;2023-07-29T05:01:09;1.00;;;0.40;;
48621;SDS011;34421;48.944;9.460;2023-07-29T05:03:34;1.30;;;0.50;;
48621;SDS011;34421;48.944;9.460;2023-07-29T05:06:00;0.60;;;0.40;;
48621;SDS011;34421;48.944;9.460;2023-07-29T05:08:26;1.85;;;0.60;;
48621;SDS011;34421;48.944;9.460;2023-07-29T05:10:52;1.52;;;0.50;;
48621;SDS011;34421;48.944;9.460;2023-07-29T05:13:18;1.17;;;0.60;;
48621;SDS011;34421;48.944;9.460;2023-07-29T05:15:44;0.60;;;0.30;;
48621;SDS011;34421;48.944;9.460;2023-07-29T05:18:09;1.00;;;0.45;;
48621;SDS011;34421;48.944;9.460;2023-07-29T05:20:35;0.88;;;0.40;;
48621;SDS011;34421;48.944;9.460;2023-07-29T05:23:00;0.95;;;0.40;;
48621;SDS011;34421;48.944;9.460;2023-07-29T05:25:26;1.80;;;0.57;;
48621;SDS011;34421;48.944;9.460;2023-07-29T05:27:51;1.33;;;0.57;;
48621;SDS011;34421;48.944;9.460;2023-07-29T05:30:17;0.75;;;0.40;;
48621;SDS011;34421;48.944;9.460;2023-07-29T05:32:42;0.80;;;0.40;;
48621;SDS011;34421;48.944;9.460;2023-07-29T05:35:08;2.08;;;0.98;;
48621;SDS011;34421;48.944;9.460;2023-07-29T05:37:33;1.70;;;0.65;;
48621;SDS011;34421;48.944;9.460;2023-07-29T05:39:59;1.02;;;0.50;;
48621;SDS011;34421;48.944;9.460;2023-07-29T05:42:24;2.05;;;0.43;;
48621;SDS011;34421;48.944;9.460;2023-07-29T05:44:49;1.50;;;0.50;;
48621;SDS011;34421;48.944;9.460;2023-07-29T05:47:15;2.50;;;0.60;;
48621;SDS011;34421;48.944;9.460;2023-07-29T05:49:40;1.35;;;0.47;;
48621;SDS011;34421;48.944;9.460;2023-07-29T05:52:05;1.10;;;0.40;;
48621;SDS011;34421;48.944;9.460;2023-07-29T05:54:31;1.48;;;0.50;;
48621;SDS011;34421;48.944;9.460;2023-07-29T05:56:56;0.90;;;0.30;;
48621;SDS011;34421;48.944;9.460;2023-07-29T05:59:21;0.77;;;0.30;;
48621;SDS011;34421;48.944;9.460;2023-07-29T06:01:47;1.40;;;0.50;;
48621;SDS011;34421;48.944;9.460;2023-07-29T06:04:12;1.60;;;0.43;;
48621;SDS011;34421;48.944;9.460;2023-07-29T06:06:37;1.25;;;0.28;;
48621;SDS011;34421;48.944;9.460;2023-07-29T06:09:03;1.95;;;0.35;;
48621;SDS011;34421;48.944;9.460;2023-07-29T06:11:28;1.60;;;0.47;;
48621;SDS011;34421;48.944;9.460;2023-07-29T06:13:53;1.60;;;0.65;;
48621;SDS011;34421;48.944;9.460;2023-07-29T06:16:19;0.77;;;0.40;;
48621;SDS011;34421;48.944;9.460;2023-07-29T06:18:44;1.33;;;0.50;;
48621;SDS011;34421;48.944;9.460;2023-07-29T06:21:10;9.40;;;4.00;;
48621;SDS011;34421;48.944;9.460;2023-07-29T06:23:41;5.20;;;2.25;;
48621;SDS011;34421;48.944;9.460;2023-07-29T06:26:07;2.05;;;0.80;;
48621;SDS011;34421;48.944;9.460;2023-07-29T06:28:32;0.68;;;0.32;;
48621;SDS011;34421;48.944;9.460;2023-07-29T06:30:57;0.80;;;0.30;;
48621;SDS011;34421;48.944;9.460;2023-07-29T06:33:23;0.90;;;0.40;;
48621;SDS011;34421;48.944;9.460;2023-07-29T06:35:48;1.00;;;0.35;;
48621;SDS011;34421;48.944;9.460;2023-07-29T06:38:14;0.38;;;0.10;;
48621;SDS011;34421;48.944;9.460;2023-07-29T06:40:39;0.77;;;0.30;;
48621;SDS011;34421;48.944;9.460;2023-07-29T06:43:04;1.25;;;0.40;;
48621;SDS011;34421;48.944;9.460;2023-07-29T06:45:30;0.45;;;0.20;;
48621;SDS011;34421;48.944;9.460;2023-07-29T06:47:55;1.60;;;0.43;;
48621;SDS011;34421;48.944;9.460;2023-07-29T06:50:20;0.95;;;0.30;;
48621;SDS011;34421;48.944;9.460;2023-07-29T06:52:46;0.93;;;0.30;;
48621;SDS011;34421;48.944;9.460;2023-07-29T06:55:11;0.70;;;0.50;;
48621;SDS011;34421;48.944;9.460;2023-07-29T06:57:36;0.93;;;0.30;;
48621;SDS011;34421;48.944;9.460;2023-07-29T07:00:02;0.40;;;0.20;;
48621;SDS011;34421;48.944;9.460;2023-07-29T07:02:28;0.82;;;0.57;;
48621;SDS011;34421;48.944;9.460;2023-07-29T07:04:54;0.93;;;0.35;;
48621;SDS011;34421;48.944;9.460;2023-07-29T07:07:19;1.45;;;0.40;;
48621;SDS011;34421;48.944;9.460;2023-07-29T07:09:45;2.03;;;0.50;;
48621;SDS011;34421;48.944;9.460;2023-07-29T07:12:11;0.65;;;0.30;;
48621;SDS011;34421;48.944;9.460;2023-07-29T07:14:37;0.85;;;0.40;;
48621;SDS011;34421;48.944;9.460;2023-07-29T07:17:02;0.90;;;0.30;;
48621;SDS011;34421;48.944;9.460;2023-07-29T07:19:28;0.95;;;0.30;;
48621;SDS011;34421;48.944;9.460;2023-07-29T07:21:53;0.73;;;0.40;;
48621;SDS011;34421;48.944;9.460;2023-07-29T07:24:18;1.20;;;0.35;;
48621;SDS011;34421;48.944;9.460;2023-07-29T07:26:44;0.75;;;0.38;;
48621;SDS011;34421;48.944;9.460;2023-07-29T07:29:09;0.70;;;0.40;;
48621;SDS011;34421;48.944;9.460;2023-07-29T07:31:34;0.70;;;0.30;;
48621;SDS011;34421;48.944;9.460;2023-07-29T07:34:00;0.52;;;0.20;;
48621;SDS011;34421;48.944;9.460;2023-07-29T07:36:27;0.70;;;0.20;;
48621;SDS011;34421;48.944;9.460;2023-07-29T07:38:52;0.60;;;0.40;;
48621;SDS011;34421;48.944;9.460;2023-07-29T07:41:17;0.93;;;0.30;;
48621;SDS011;34421;48.944;9.460;2023-07-29T07:43:43;0.75;;;0.38;;
48621;SDS011;34421;48.944;9.460;2023-07-29T07:46:08;0.98;;;0.40;;
48621;SDS011;34421;48.944;9.460;2023-07-29T07:48:33;1.10;;;0.50;;
48621;SDS011;34421;48.944;9.460;2023-07-29T07:50:59;0.43;;;0.30;;
48621;SDS011;34421;48.944;9.460;2023-07-29T07:53:24;1.15;;;0.40;;
48621;SDS011;34421;48.944;9.460;2023-07-29T07:55:50;0.70;;;0.20;;
48621;SDS011;34421;48.944;9.460;2023-07-29T07:58:16;1.38;;;0.52;;
48621;SDS011;34421;48.944;9.460;2023-07-29T08:00:41;0.52;;;0.30;;
48621;SDS011;34421;48.944;9.460;2023-07-29T08:03:07;0.75;;;0.40;;
48621;SDS011;34421;48.944;9.460;2023-07-29T08:05:32;1.00;;;0.40;;
48621;SDS011;34421;48.944;9.460;2023-07-29T08:07:57;0.90;;;0.30;;
48621;SDS011;34421;48.944;9.460;2023-07-29T08:10:23;0.52;;;0.40;;
48621;SDS011;34421;48.944;9.460;2023-07-29T08:12:48;0.75;;;0.40;;
48621;SDS011;34421;48.944;9.460;2023-07-29T08:15:13;1.48;;;0.60;;
48621;SDS011;34421;48.944;9.460;2023-07-29T08:17:39;0.50;;;0.25;;
48621;SDS011;34421;48.944;9.460;2023-07-29T08:20:04;0.93;;;0.35;;
48621;SDS011;34421;48.944;9.460;2023-07-29T08:22:30;0.85;;;0.20;;
48621;SDS011;34421;48.944;9.460;2023-07-29T08:24:55;1.35;;;0.47;;
48621;SDS011;34421;48.944;9.460;2023-07-29T08:27:20;0.93;;;0.30;;
48621;SDS011;34421;48.944;9.460;2023-07-29T08:29:46;1.30;;;0.57;;
48621;SDS011;34421;48.944;9.460;2023-07-29T08:32:11;1.52;;;0.57;;
48621;SDS011;34421;48.944;9.460;2023-07-29T08:34:36;1.20;;;0.40;;
48621;SDS011;34421;48.944;9.460;2023-07-29T08:37:02;1.27;;;0.30;;
48621;SDS011;34421;48.944;9.460;2023-07-29T08:39:27;0.65;;;0.30;;
48621;SDS011;34421;48.944;9.460;2023-07-29T08:44:35;1.75;;;0.40;;
48621;SDS011;34421;48.944;9.460;2023-07-29T08:47:05;1.40;;;0.40;;
48621;SDS011;34421;48.944;9.460;2023-07-29T08:49:30;0.57;;;0.20;;
48621;SDS011;34421;48.944;9.460;2023-07-29T08:51:57;1.52;;;0.30;;
48621;SDS011;34421;48.944;9.460;2023-07-29T08:54:22;0.60;;;0.30;;
48621;SDS011;34421;48.944;9.460;2023-07-29T08:56:48;0.70;;;0.30;;
48621;SDS011;34421;48.944;9.460;2023-07-29T08:59:13;0.80;;;0.43;;
48621;SDS011;34421;48.944;9.460;2023-07-29T09:01:39;2.45;;;0.40;;
48621;SDS011;34421;48.944;9.460;2023-07-29T09:04:05;0.63;;;0.20;;
48621;SDS011;34421;48.944;9.460;2023-07-29T09:06:31;0.65;;;0.25;;
48621;SDS011;34421;48.944;9.460;2023-07-29T09:08:56;0.57;;;0.25;;
48621;SDS011;34421;48.944;9.460;2023-07-29T09:11:23;0.38;;;0.15;;
48621;SDS011;34421;48.944;9.460;2023-07-29T09:13:49;1.00;;;0.32;;
48621;SDS011;34421;48.944;9.460;2023-07-29T09:16:14;0.50;;;0.20;;
48621;SDS011;34421;48.944;9.460;2023-07-29T09:18:40;0.50;;;0.20;;
48621;SDS011;34421;48.944;9.460;2023-07-29T09:21:05;0.10;;;0.10;;
48621;SDS011;34421;48.944;9.460;2023-07-29T09:23:41;0.40;;;0.20;;
48621;SDS011;34421;48.944;9.460;2023-07-29T09:26:07;0.95;;;0.15;;
48621;SDS011;34421;48.944;9.460;2023-07-29T09:28:34;0.43;;;0.10;;
48621;SDS011;34421;48.944;9.460;2023-07-29T09:31:00;0.57;;;0.15;;
48621;SDS011;34421;48.944;9.460;2023-07-29T09:33:27;0.80;;;0.20;;
48621;SDS011;34421;48.944;9.460;2023-07-29T09:35:52;0.15;;;0.10;;
48621;SDS011;34421;48.944;9.460;2023-07-29T09:38:18;1.52;;;0.28;;
48621;SDS011;34421;48.944;9.460;2023-07-29T09:40:50;0.63;;;0.17;;
48621;SDS011;34421;48.944;9.460;2023-07-29T09:43:20;0.90;;;0.30;;
48621;SDS011;34421;48.944;9.460;2023-07-29T09:45:51;0.45;;;0.10;;
48621;SDS011;34421;48.944;9.460;2023-07-29T09:48:19;0.90;;;0.20;;
48621;SDS011;34421;48.944;9.460;2023-07-29T09:50:47;0.30;;;0.10;;
48621;SDS011;34421;48.944;9.460;2023-07-29T09:53:13;0.55;;;0.25;;
48621;SDS011;34421;48.944;9.460;2023-07-29T09:55:39;0.25;;;0.17;;
48621;SDS011;34421;48.944;9.460;2023-07-29T09:58:04;0.20;;;0.10;;
48621;SDS011;34421;48.944;9.460;2023-07-29T10:00:33;1.98;;;0.20;;
48621;SDS011;34421;48.944;9.460;2023-07-29T10:02:59;0.40;;;0.20;;
48621;SDS011;34421;48.944;9.460;2023-07-29T10:05:25;0.65;;;0.22;;
48621;SDS011;34421;48.944;9.460;2023-07-29T10:07:51;1.20;;;0.22;;
48621;SDS011;34421;48.944;9.460;2023-07-29T10:10:17;0.25;;;0.10;;
48621;SDS011;34421;48.944;9.460;2023-07-29T10:12:43;1.48;;;0.30;;
48621;SDS011;34421;48.944;9.460;2023-07-29T10:15:09;0.55;;;0.20;;
48621;SDS011;34421;48.944;9.460;2023-07-29T10:17:35;1.88;;;0.55;;
48621;SDS011;34421;48.944;9.460;2023-07-29T10:20:05;1.42;;;0.30;;
48621;SDS011;34421;48.944;9.460;2023-07-29T10:25:08;1.05;;;0.28;;
48621;SDS011;34421;48.944;9.460;2023-07-29T10:30:29;1.38;;;0.40;;
48621;SDS011;34421;48.944;9.460;2023-07-29T10:32:55;1.15;;;0.20;;
48621;SDS011;34421;48.944;9.460;2023-07-29T10:35:23;2.03;;;0.30;;
48621;SDS011;34421;48.944;9.460;2023-07-29T10:37:50;0.40;;;0.20;;
48621;SDS011;34421;48.944;9.460;2023-07-29T10:40:18;0.68;;;0.10;;
48621;SDS011;34421;48.944;9.460;2023-07-29T10:43:03;0.25;;;0.13;;
48621;SDS011;34421;48.944;9.460;2023-07-29T10:45:38;0.30;;;0.10;;
48621;SDS011;34421;48.944;9.460;2023-07-29T10:48:05;1.92;;;0.40;;
48621;SDS011;34421;48.944;9.460;2023-07-29T10:50:37;0.98;;;0.38;;
48621;SDS011;34421;48.944;9.460;2023-07-29T10:53:03;0.28;;;0.20;;
48621;SDS011;34421;48.944;9.460;2023-07-29T10:55:33;0.90;;;0.30;;
48621;SDS011;34421;48.944;9.460;2023-07-29T10:58:08;0.63;;;0.30;;
48621;SDS011;34421;48.944;9.460;2023-07-29T11:00:39;1.00;;;0.28;;
48621;SDS011;34421;48.944;9.460;2023-07-29T11:03:06;0.98;;;0.30;;
48621;SDS011;34421;48.944;9.460;2023-07-29T11:05:41;1.90;;;0.50;;
48621;SDS011;34421;48.944;9.460;2023-07-29T11:08:22;0.45;;;0.25;;
48621;SDS011;34421;48.944;9.460;2023-07-29T11:11:05;0.35;;;0.10;;
48621;SDS011;34421;48.944;9.460;2023-07-29T11:13:33;0.30;;;0.20;;
48621;SDS011;34421;48.944;9.460;2023-07-29T11:16:00;1.80;;;0.22;;
48621;SDS011;34421;48.944;9.460;2023-07-29T11:18:27;0.28;;;0.10;;
48621;SDS011;34421;48.944;9.460;2023-07-29T11:20:54;1.10;;;0.22;;
48621;SDS011;34421;48.944;9.460;2023-07-29T11:23:34;1.73;;;0.20;;
48621;SDS011;34421;48.944;9.460;2023-07-29T11:26:03;1.85;;;0.43;;
48621;SDS011;34421;48.944;9.460;2023-07-29T11:28:29;0.38;;;0.20;;
48621;SDS011;34421;48.944;9.460;2023-07-29T11:30:55;0.70;;;0.30;;
48621;SDS011;34421;48.944;9.460;2023-07-29T11:33:23;1.02;;;0.20;;
48621;SDS011;34421;48.944;9.460;2023-07-29T11:35:50;1.30;;;0.20;;
48621;SDS011;34421;48.944;9.460;2023-07-29T11:38:16;1.48;;;0.20;;
48621;SDS011;34421;48.944;9.460;2023-07-29T11:40:43;0.45;;;0.20;;
48621;SDS011;34421;48.944;9.460;2023-07-29T11:43:18;0.93;;;0.22;;
48621;SDS011;34421;48.944;9.460;2023-07-29T11:45:44;0.75;;;0.10;;
48621;SDS011;34421;48.944;9.460;2023-07-29T11:48:10;0.70;;;0.20;;
48621;SDS011;34421;48.944;9.460;2023-07-29T11:50:35;0.22;;;0.10;;
48621;SDS011;34421;48.944;9.460;2023-07-29T11:53:01;0.22;;;0.13;;
48621;SDS011;34421;48.944;9.460;2023-07-29T11:55:27;0.30;;;0.10;;
48621;SDS011;34421;48.944;9.460;2023-07-29T11:57:52;0.50;;;0.05;;
48621;SDS011;34421;48.944;9.460;2023-07-29T12:00:18;0.40;;;0.10;;
48621;SDS011;34421;48.944;9.460;2023-07-29T12:02:43;0.80;;;0.22;;
48621;SDS011;34421;48.944;9.460;2023-07-29T12:05:10;0.68;;;0.20;;
48621;SDS011;34421;48.944;9.460;2023-07-29T12:07:40;0.20;;;0.20;;
48621;SDS011;34421;48.944;9.460;2023-07-29T12:10:07;0.50;;;0.20;;
48621;SDS011;34421;48.944;9.460;2023-07-29T12:12:33;8.13;;;0.77;;
48621;SDS011;34421;48.944;9.460;2023-07-29T12:14:58;0.70;;;0.30;;
48621;SDS011;34421;48.944;9.460;2023-07-29T12:17:23;1.17;;;0.30;;
48621;SDS011;34421;48.944;9.460;2023-07-29T12:19:49;0.55;;;0.20;;
48621;SDS011;34421;48.944;9.460;2023-07-29T12:22:19;3.80;;;0.25;;
48621;SDS011;34421;48.944;9.460;2023-07-29T12:24:44;0.35;;;0.13;;
48621;SDS011;34421;48.944;9.460;2023-07-29T12:27:13;0.45;;;0.10;;
48621;SDS011;34421;48.944;9.460;2023-07-29T12:29:41;0.47;;;0.20;;
48621;SDS011;34421;48.944;9.460;2023-07-29T12:32:09;0.60;;;0.20;;
48621;SDS011;34421;48.944;9.460;2023-07-29T12:34:35;0.50;;;0.20;;
48621;SDS011;34421;48.944;9.460;2023-07-29T12:37:04;0.43;;;0.20;;
48621;SDS011;34421;48.944;9.460;2023-07-29T12:39:31;0.52;;;0.25;;
48621;SDS011;34421;48.944;9.460;2023-07-29T12:41:58;0.40;;;0.20;;
48621;SDS011;34421;48.944;9.460;2023-07-29T12:44:25;0.63;;;0.20;;
48621;SDS011;34421;48.944;9.460;2023-07-29T12:46:56;0.57;;;0.25;;
48621;SDS011;34421;48.944;9.460;2023-07-29T12:49:21;0.45;;;0.15;;
48621;SDS011;34421;48.944;9.460;2023-07-29T12:51:47;3.15;;;0.30;;
48621;SDS011;34421;48.944;9.460;2023-07-29T12:54:12;0.52;;;0.30;;
48621;SDS011;34421;48.944;9.460;2023-07-29T12:56:38;0.57;;;0.20;;
48621;SDS011;34421;48.944;9.460;2023-07-29T12:59:04;1.13;;;0.30;;
48621;SDS011;34421;48.944;9.460;2023-07-29T13:01:30;4.10;;;0.35;;
48621;SDS011;34421;48.944;9.460;2023-07-29T13:03:56;0.22;;;0.20;;
48621;SDS011;34421;48.944;9.460;2023-07-29T13:06:21;0.85;;;0.20;;
48621;SDS011;34421;48.944;9.460;2023-07-29T13:08:47;0.55;;;0.20;;
48621;SDS011;34421;48.944;9.460;2023-07-29T13:11:12;1.27;;;0.32;;
48621;SDS011;34421;48.944;9.460;2023-07-29T13:13:38;1.10;;;0.40;;
48621;SDS011;34421;48.944;9.460;2023-07-29T13:16:04;1.40;;;0.40;;
48621;SDS011;34421;48.944;9.460;2023-07-29T13:18:30;0.80;;;0.25;;
48621;SDS011;34421;48.944;9.460;2023-07-29T13:20:56;0.30;;;0.20;;
48621;SDS011;34421;48.944;9.460;2023-07-29T13:23:22;3.38;;;0.60;;
48621;SDS011;34421;48.944;9.460;2023-07-29T13:25:47;1.67;;;0.57;;
48621;SDS011;34421;48.944;9.460;2023-07-29T13:28:13;1.05;;;0.40;;
48621;SDS011;34421;48.944;9.460;2023-07-29T13:30:38;1.33;;;0.50;;
48621;SDS011;34421;48.944;9.460;2023-07-29T13:33:05;1.60;;;0.60;;
48621;SDS011;34421;48.944;9.460;2023-07-29T13:35:31;1.33;;;0.55;;
48621;SDS011;34421;48.944;9.460;2023-07-29T13:37:57;1.70;;;0.60;;
48621;SDS011;34421;48.944;9.460;2023-07-29T13:40:22;1.13;;;0.50;;
48621;SDS011;34421;48.944;9.460;2023-07-29T13:42:48;1.05;;;0.40;;
48621;SDS011;34421;48.944;9.460;2023-07-29T13:45:13;2.20;;;0.40;;
48621;SDS011;34421;48.944;9.460;2023-07-29T13:47:38;0.77;;;0.50;;
48621;SDS011;34421;48.944;9.460;2023-07-29T13:50:04;2.42;;;0.85;;
48621;SDS011;34421;48.944;9.460;2023-07-29T13:52:32;5.32;;;0.90;;
48621;SDS011;34421;48.944;9.460;2023-07-29T13:54:57;1.63;;;0.60;;
48621;SDS011;34421;48.944;9.460;2023-07-29T13:57:23;3.83;;;0.75;;
48621;SDS011;34421;48.944;9.460;2023-07-29T13:59:48;1.92;;;0.60;;
48621;SDS011;34421;48.944;9.460;2023-07-29T14:02:13;1.23;;;0.50;;
48621;SDS011;34421;48.944;9.460;2023-07-29T14:04:39;2.20;;;0.70;;
48621;SDS011;34421;48.944;9.460;2023-07-29T14:07:04;1.20;;;0.55;;
48621;SDS011;34421;48.944;9.460;2023-07-29T14:09:30;3.72;;;0.55;;
48621;SDS011;34421;48.944;9.460;2023-07-29T14:11:55;2.88;;;0.50;;
48621;SDS011;34421;48.944;9.460;2023-07-29T14:14:20;2.67;;;0.50;;
48621;SDS011;34421;48.944;9.460;2023-07-29T14:16:46;1.10;;;0.40;;
48621;SDS011;34421;48.944;9.460;2023-07-29T14:19:12;3.70;;;0.60;;
48621;SDS011;34421;48.944;9.460;2023-07-29T14:21:37;2.22;;;0.50;;
48621;SDS011;34421;48.944;9.460;2023-07-29T14:24:02;2.30;;;0.50;;
48621;SDS011;34421;48.944;9.460;2023-07-29T14:26:28;2.17;;;0.63;;
48621;SDS011;34421;48.944;9.460;2023-07-29T14:28:53;0.80;;;0.45;;
48621;SDS011;34421;48.944;9.460;2023-07-29T14:31:19;6.90;;;0.82;;
48621;SDS011;34421;48.944;9.460;2023-07-29T14:33:44;1.23;;;0.40;;
48621;SDS011;34421;48.944;9.460;2023-07-29T14:36:09;1.80;;;0.47;;
48621;SDS011;34421;48.944;9.460;2023-07-29T14:38:35;1.48;;;0.63;;
48621;SDS011;34421;48.944;9.460;2023-07-29T14:41:01;1.02;;;0.50;;
48621;SDS011;34421;48.944;9.460;2023-07-29T14:43:27;0.75;;;0.40;;
48621;SDS011;34421;48.944;9.460;2023-07-29T14:45:53;0.98;;;0.40;;
48621;SDS011;34421;48.944;9.460;2023-07-29T14:48:18;0.95;;;0.43;;
48621;SDS011;34421;48.944;9.460;2023-07-29T14:50:43;1.58;;;0.52;;